メインページ
METAR-TAF:

METAR-TAF

空港 :

ヒューストン, テキサス州, アメリカ合衆国

ジョージ・ブッシュ・インターコンチネンタル空港

緯度: 29-59-33N, 経度: 095-21-50W, 海抜: 29m

現時点の気象観測

当レポートは1時間11分前の20:53(UTC)に作成
南/南東の風 19kt、最大25ktの突風を伴う
気温 26°C
湿度 61%
気圧 1014 hPa
視程: 16.1km
高度3500ftの雲は散在している
高度6500ftの千切れ雲あり
高度25000ftの曇り

METAR: KIAH 192053Z 16019G25KT 10SM SCT035 BKN065 OVC250 26/18 A2995 RMK AO2 PK WND 15029/2031 SLP141 T02610178 56019

時間: 16:04 (22:04 UTC)

予報

当レポートは58分前の21:06(UTC)に作成
予報は19日の 21時(UTC)から 20日の 24時(UTC)まで有効
南/南東の風 17kt、最大25ktの突風を伴う
視程: 10km
高度3500ftの雲は散在している
高度7000ftの千切れ雲あり
高度25000ftの曇り
20日の 0200時(UTC)から
南/南東の風 14kt
視程: 10km
高度1000ftの雲は散在している
高度1800ftの千切れ雲あり
20日の 0600時(UTC)から
南/南東の風 12kt
視程: 9.7km
高度800ftの雲は散在している
高度1200ftの曇り
20日の 11時(UTC)から 20日の 14時(UTC)まで一時的に
視程: 6.4km
高度800ftの千切れ雲あり
20日の 1500時(UTC)から
南/南東の風 14kt、最大22ktの突風を伴う
視程: 10km
高度1000ftの雲は散在している
高度1500ftの曇り
近辺でにわか雨
20日の 1800時(UTC)から
南/南東の風 16kt、最大26ktの突風を伴う
視程: 10km
高度2000ftの千切れ雲あり, 積乱雲.
高度3500ftの曇り
近辺で激しい雷雨

TAF: KIAH 192106Z 1921/2024 16017G25KT P6SM SCT035 BKN070 OVC250 FM200200 16014KT P6SM SCT010 BKN018 FM200600 15012KT 6SM BR SCT008 OVC012 TEMPO 2011/2014 4SM BR BKN008 FM201500 16014G22KT P6SM VCSH SCT010 OVC015 FM201800 16016G26KT P6SM VCTS BKN020CB OVC035

4,000以上の空港の気象観測と天気予報(METAR報とTAF報)

利用可能な観測所は地図上に黄色い丸と赤い丸で示す。

丸の上にカーソルを重ねると観測所名を参照できる。

次にクリックすると気象観測と天気予報を参照できる。

マップの切り替え:黒色「×」印の緑ボタンをクリックして拡大、「-」印の緑ボタンをクリックして縮小、緑色の三角印をクリックして隣りの地図に切り替え


METAR-TAF: